WZZ4VB LBSF-LBSF

Flight info

Callsign WZZ4VB
Flight time N/A
Altitude 15000
Route KAL DCT BLO
Aircraft A320/M-SDE3FGHIRWY/LB1

Departure

Time 2026-05-07 11:56
Airport Sofia Airport (LBSF)

Arrival

Time N/A
Airport Sofia Airport (LBSF)
Time Latitude Longitude Altitude Speed Heading
2026-05-07 11:46 42.69044 23.40468 1749 ft 0 kts 196°
2026-05-07 11:52 42.69035 23.40465 1749 ft 5 kts 196°
2026-05-07 11:52 42.69009 23.40452 1745 ft 2 kts 212°
2026-05-07 11:52 42.69009 23.40396 1741 ft 8 kts 285°
2026-05-07 11:53 42.69031 23.40315 1747 ft 10 kts 313°
2026-05-07 11:53 42.69104 23.40318 1749 ft 12 kts 12°
2026-05-07 11:53 42.69192 23.40352 1749 ft 14 kts 18°
2026-05-07 11:53 42.69296 23.40396 1748 ft 17 kts 17°
2026-05-07 11:54 42.69416 23.40446 1745 ft 19 kts 17°
2026-05-07 11:54 42.69529 23.40506 1749 ft 15 kts 40°
2026-05-07 11:54 42.69583 23.40642 1745 ft 17 kts 66°
2026-05-07 11:54 42.69636 23.40792 1747 ft 19 kts 68°
2026-05-07 11:55 42.69683 23.40977 1743 ft 26 kts 76°
2026-05-07 11:55 42.69661 23.41529 1752 ft 92 kts 95°
2026-05-07 11:55 42.69593 23.42657 1744 ft 145 kts 95°
2026-05-07 11:55 42.69501 23.44099 2183 ft 150 kts 95°
2026-05-07 11:56 42.69408 23.45522 2745 ft 152 kts 95°
2026-05-07 11:56 42.69498 23.46996 3133 ft 167 kts 64°
2026-05-07 11:56 42.70353 23.48158 3415 ft 188 kts 22°
2026-05-07 11:56 42.71707 23.48316 3773 ft 210 kts 341°
2026-05-07 11:57 42.72989 23.47257 4199 ft 228 kts 307°
2026-05-07 11:57 42.73702 23.45258 4682 ft 248 kts 281°
2026-05-07 11:57 42.74000 23.42860 5405 ft 263 kts 275°
2026-05-07 11:57 42.74235 23.40402 5842 ft 260 kts 274°
2026-05-07 11:58 42.74447 23.37976 5945 ft 256 kts 274°
2026-05-07 11:58 42.74651 23.35563 5678 ft 258 kts 274°
2026-05-07 11:58 42.74848 23.33134 5380 ft 258 kts 274°
2026-05-07 11:58 42.75042 23.30687 5088 ft 262 kts 274°
2026-05-07 11:59 42.75237 23.28225 4794 ft 261 kts 274°
2026-05-07 11:59 42.75434 23.25757 4483 ft 262 kts 274°
2026-05-07 11:59 42.75630 23.23333 4180 ft 252 kts 272°
2026-05-07 11:59 42.75324 23.21134 4017 ft 227 kts 233°
2026-05-07 12:00 42.74180 23.19918 4015 ft 207 kts 197°
2026-05-07 12:00 42.72778 23.19877 3996 ft 203 kts 162°
2026-05-07 12:00 42.71582 23.20909 4004 ft 206 kts 135°
2026-05-07 12:00 42.70856 23.22550 4004 ft 204 kts 109°
2026-05-07 12:01 42.70647 23.24474 3928 ft 208 kts 96°
2026-05-07 12:01 42.70545 23.26394 3739 ft 197 kts 97°
2026-05-07 12:01 42.70443 23.28217 3474 ft 189 kts 97°
2026-05-07 12:01 42.70344 23.29933 3214 ft 175 kts 96°
2026-05-07 12:02 42.70252 23.31500 2991 ft 158 kts 95°
2026-05-07 12:02 42.70166 23.32947 2774 ft 150 kts 95°
2026-05-07 12:02 42.70083 23.34348 2572 ft 147 kts 94°
2026-05-07 12:02 42.70001 23.35729 2386 ft 146 kts 94°
2026-05-07 12:03 42.69920 23.37100 2200 ft 145 kts 94°
2026-05-07 12:03 42.69841 23.38467 1993 ft 145 kts 95°
2026-05-07 12:03 42.69765 23.39836 1822 ft 145 kts 95°
2026-05-07 12:03 42.69688 23.41139 1752 ft 125 kts 96°
2026-05-07 12:04 42.69619 23.42225 1747 ft 109 kts 95°
2026-05-07 12:04 42.69541 23.43470 1787 ft 161 kts 96°
2026-05-07 12:04 42.69455 23.45004 2513 ft 169 kts 90°
2026-05-07 12:04 42.69794 23.46576 3278 ft 188 kts 52°
2026-05-07 12:05 42.70882 23.47669 3706 ft 209 kts 16°
2026-05-07 12:05 42.72360 23.47691 4168 ft 219 kts 337°
2026-05-07 12:05 42.73604 23.46553 4758 ft 219 kts 306°
2026-05-07 12:05 42.74232 23.44720 4907 ft 213 kts 280°
2026-05-07 12:06 42.74483 23.42749 4951 ft 211 kts 275°
2026-05-07 12:06 42.74659 23.40770 4951 ft 211 kts 274°
2026-05-07 12:06 42.74824 23.38789 4959 ft 211 kts 274°
2026-05-07 12:06 42.74987 23.36808 4846 ft 210 kts 274°
2026-05-07 12:07 42.75149 23.34834 4554 ft 210 kts 274°
2026-05-07 12:07 42.75311 23.32855 4286 ft 211 kts 274°
2026-05-07 12:07 42.75471 23.30882 4070 ft 209 kts 274°
2026-05-07 12:07 42.75634 23.28907 3966 ft 210 kts 274°
2026-05-07 12:08 42.75796 23.26958 3982 ft 202 kts 274°
2026-05-07 12:08 42.75954 23.25137 3956 ft 186 kts 272°
2026-05-07 12:08 42.75841 23.23493 3944 ft 164 kts 245°
2026-05-07 12:08 42.75259 23.22270 3944 ft 149 kts 220°
2026-05-07 12:09 42.74404 23.21581 3950 ft 141 kts 196°
2026-05-07 12:09 42.73433 23.21453 3953 ft 141 kts 173°
2026-05-07 12:09 42.72502 23.21904 3946 ft 145 kts 150°
2026-05-07 12:09 42.71664 23.22691 3950 ft 147 kts 143°
2026-05-07 12:10 42.70995 23.23755 3959 ft 151 kts 123°
2026-05-07 12:10 42.70679 23.25119 3867 ft 156 kts 98°
2026-05-07 12:10 42.70564 23.26592 3689 ft 156 kts 100°
2026-05-07 12:10 42.70466 23.28032 3504 ft 152 kts 98°
2026-05-07 12:11 42.70375 23.29464 3317 ft 153 kts 96°
2026-05-07 12:11 42.70289 23.30891 3088 ft 150 kts 96°
2026-05-07 12:11 42.70205 23.32296 2874 ft 148 kts 95°
2026-05-07 12:11 42.70122 23.33686 2672 ft 147 kts 95°
2026-05-07 12:12 42.70041 23.35061 2481 ft 146 kts 95°
2026-05-07 12:12 42.69960 23.36432 2300 ft 145 kts 95°
2026-05-07 12:12 42.69879 23.37798 2100 ft 145 kts 95°
2026-05-07 12:12 42.69806 23.39164 1896 ft 145 kts 95°
2026-05-07 12:13 42.69720 23.40525 1755 ft 143 kts 96°
2026-05-07 12:13 42.69631 23.41898 2218 ft 144 kts 95°